createdAt,value
2018-06-20T00:00:49.143Z,74.60
2018-06-20T00:03:16.666Z,74.70
2018-06-20T00:05:44.161Z,74.70
2018-06-20T00:08:11.673Z,75.30
2018-06-20T00:10:39.190Z,75.30
2018-06-20T00:13:06.733Z,75.30
2018-06-20T00:15:34.249Z,75.20
2018-06-20T00:18:01.710Z,75.30
2018-06-20T00:20:29.180Z,75.40
2018-06-20T00:22:56.691Z,75.60
2018-06-20T00:25:24.154Z,75.90
2018-06-20T00:27:51.621Z,76.00
2018-06-20T00:30:19.174Z,76.10
2018-06-20T00:32:46.645Z,76.00
2018-06-20T00:35:14.149Z,76.10
2018-06-20T00:37:41.651Z,76.30
2018-06-20T00:40:09.206Z,76.50
2018-06-20T00:42:36.666Z,76.70
2018-06-20T00:45:04.185Z,76.70
2018-06-20T00:47:31.701Z,76.90
2018-06-20T00:49:59.202Z,77.10
2018-06-20T00:52:26.669Z,77.10
2018-06-20T00:54:54.170Z,77.30
2018-06-20T00:57:21.648Z,77.30
2018-06-20T00:59:49.186Z,77.40
2018-06-20T01:02:16.674Z,77.50
2018-06-20T01:04:44.147Z,77.20
2018-06-20T01:07:11.634Z,77.20
2018-06-20T01:09:39.126Z,77.40
2018-06-20T01:12:06.581Z,77.30
2018-06-20T01:14:34.724Z,77.60
2018-06-20T01:17:02.271Z,77.60
2018-06-20T01:19:29.741Z,77.70
2018-06-20T01:21:57.233Z,77.70
2018-06-20T01:24:24.839Z,77.80
2018-06-20T01:26:52.315Z,77.90
2018-06-20T01:29:19.817Z,78.10
2018-06-20T01:31:47.303Z,78.10
2018-06-20T01:34:14.793Z,78.20
2018-06-20T01:36:42.298Z,78.30
2018-06-20T01:39:10.710Z,78.70
2018-06-20T01:41:38.209Z,78.50
2018-06-20T01:44:05.877Z,78.50
2018-06-20T01:46:33.340Z,78.70
2018-06-20T01:49:00.806Z,78.50
2018-06-20T01:51:28.341Z,78.50
2018-06-20T01:53:55.818Z,78.40
2018-06-20T01:56:23.663Z,78.50
2018-06-20T01:58:51.130Z,78.70
2018-06-20T02:01:18.663Z,78.90
2018-06-20T02:03:46.139Z,79.00
2018-06-20T02:06:13.606Z,78.80
2018-06-20T02:08:41.123Z,78.80
2018-06-20T02:11:08.594Z,78.80
2018-06-20T02:13:36.098Z,79.30
2018-06-20T02:16:03.614Z,79.70
2018-06-20T02:18:31.107Z,80.40
2018-06-20T02:20:58.617Z,80.40
2018-06-20T02:23:26.139Z,80.70
2018-06-20T02:25:53.599Z,80.50
2018-06-20T02:28:21.102Z,80.60
2018-06-20T02:30:48.587Z,81.10
2018-06-20T02:33:16.115Z,81.40
2018-06-20T02:35:43.572Z,81.60
2018-06-20T02:38:11.063Z,81.60
2018-06-20T02:40:38.527Z,81.40
2018-06-20T02:43:06.029Z,81.50
2018-06-20T02:45:33.526Z,81.60
2018-06-20T02:48:01.015Z,81.50
2018-06-20T02:50:28.477Z,81.50
2018-06-20T02:52:55.982Z,81.90
2018-06-20T02:55:23.486Z,81.80
2018-06-20T02:57:50.998Z,81.60
2018-06-20T03:00:18.474Z,81.50
2018-06-20T03:02:45.956Z,81.50
2018-06-20T03:05:13.494Z,81.30
2018-06-20T03:07:41.006Z,81.20
2018-06-20T03:10:08.464Z,81.20
2018-06-20T03:12:35.954Z,81.00
2018-06-20T03:15:03.654Z,81.00
2018-06-20T03:17:31.125Z,81.00
2018-06-20T03:19:58.629Z,81.00
2018-06-20T03:22:26.137Z,81.00
2018-06-20T03:24:53.637Z,81.10
2018-06-20T03:27:21.158Z,81.10
2018-06-20T03:29:48.613Z,81.10
2018-06-20T03:32:16.061Z,81.40
2018-06-20T03:34:43.637Z,81.20
2018-06-20T03:37:11.120Z,81.30
2018-06-20T03:39:38.605Z,81.40
2018-06-20T03:42:06.102Z,81.50
2018-06-20T03:44:33.584Z,81.60
2018-06-20T03:47:01.106Z,81.90
2018-06-20T03:49:28.651Z,82.00
2018-06-20T03:51:56.157Z,82.00
2018-06-20T03:54:23.704Z,82.20
2018-06-20T03:56:51.203Z,82.30
2018-06-20T03:59:18.710Z,82.60
2018-06-20T04:01:46.220Z,82.50
2018-06-20T04:04:13.702Z,82.60
2018-06-20T04:06:41.172Z,82.90
2018-06-20T04:09:11.753Z,82.70
2018-06-20T04:11:39.218Z,82.80
2018-06-20T04:14:06.706Z,83.00
2018-06-20T04:16:34.200Z,83.50
2018-06-20T04:19:01.683Z,83.70
2018-06-20T04:21:29.163Z,83.60
2018-06-20T04:23:56.659Z,83.80
2018-06-20T04:26:24.160Z,83.70
2018-06-20T04:28:51.634Z,83.70
2018-06-20T04:31:19.142Z,83.80
2018-06-20T04:33:46.600Z,83.70
2018-06-20T04:36:14.098Z,83.60
2018-06-20T04:38:41.598Z,83.50
2018-06-20T04:41:09.095Z,83.40
2018-06-20T04:43:36.613Z,83.30
2018-06-20T04:46:04.106Z,83.30
2018-06-20T04:48:31.581Z,84.00
2018-06-20T04:50:59.104Z,83.80
2018-06-20T04:53:26.573Z,84.50
2018-06-20T04:55:54.030Z,84.60
2018-06-20T04:58:21.564Z,84.70
2018-06-20T05:00:49.077Z,84.80
2018-06-20T05:05:43.939Z,84.60
2018-06-20T05:08:11.440Z,85.00
2018-06-20T05:10:39.152Z,84.40
2018-06-20T05:13:06.695Z,84.50
2018-06-20T05:15:34.222Z,84.00
2018-06-20T05:18:01.834Z,83.80
2018-06-20T05:20:29.364Z,83.70
2018-06-20T05:22:56.873Z,83.60
2018-06-20T05:25:24.453Z,83.20
2018-06-20T05:27:51.975Z,83.70
2018-06-20T05:30:19.445Z,83.70
2018-06-20T05:32:46.916Z,84.30
2018-06-20T05:35:14.421Z,85.30
2018-06-20T05:37:41.891Z,85.40
2018-06-20T05:40:09.426Z,84.80
2018-06-20T05:42:36.887Z,84.90
2018-06-20T05:45:04.433Z,85.60
2018-06-20T05:47:31.918Z,84.50
2018-06-20T05:49:59.411Z,84.60
2018-06-20T05:52:26.893Z,85.40
2018-06-20T05:54:54.390Z,86.00
2018-06-20T05:57:21.864Z,84.90
2018-06-20T05:59:49.958Z,85.70
2018-06-20T06:02:17.473Z,85.90
2018-06-20T06:04:44.924Z,87.00
2018-06-20T06:07:12.416Z,86.10
2018-06-20T06:09:39.882Z,85.50
2018-06-20T06:12:07.456Z,84.90
2018-06-20T06:14:34.902Z,85.40
2018-06-20T06:17:02.497Z,84.90
2018-06-20T06:19:29.945Z,85.30
2018-06-20T06:21:57.420Z,84.10
2018-06-20T06:24:24.998Z,85.20
2018-06-20T06:26:52.474Z,84.60
2018-06-20T06:29:19.981Z,83.60
2018-06-20T06:31:47.454Z,83.80
2018-06-20T06:34:14.981Z,84.30
2018-06-20T06:36:42.458Z,84.60
2018-06-20T06:39:11.264Z,83.00
2018-06-20T06:41:38.912Z,83.30
2018-06-20T06:44:06.465Z,85.10
2018-06-20T06:46:33.964Z,83.30
2018-06-20T06:49:01.604Z,83.00
2018-06-20T06:51:29.129Z,82.20
2018-06-20T06:53:56.673Z,84.20
2018-06-20T06:56:24.221Z,81.00
2018-06-20T06:58:51.812Z,82.50
2018-06-20T07:01:19.322Z,80.50
2018-06-20T07:03:46.825Z,80.80
2018-06-20T07:06:14.305Z,83.50
2018-06-20T07:08:41.802Z,83.10
2018-06-20T07:11:09.328Z,81.40
2018-06-20T07:13:36.785Z,81.30
2018-06-20T07:16:04.283Z,79.90
2018-06-20T07:18:31.775Z,82.10
2018-06-20T07:20:59.301Z,80.30
2018-06-20T07:23:26.805Z,78.70
2018-06-20T07:25:54.305Z,78.80
2018-06-20T07:28:21.801Z,79.00
2018-06-20T07:30:49.316Z,79.60
2018-06-20T07:33:16.841Z,78.80
2018-06-20T07:35:44.343Z,80.00
2018-06-20T07:38:11.820Z,79.70
2018-06-20T07:40:39.362Z,78.20
2018-06-20T07:43:06.825Z,79.70
2018-06-20T07:45:34.350Z,79.10
2018-06-20T07:48:01.849Z,77.70
2018-06-20T07:50:29.411Z,80.60
2018-06-20T07:52:56.903Z,80.00
2018-06-20T07:55:24.462Z,78.10
2018-06-20T07:57:51.973Z,76.20
2018-06-20T08:00:25.058Z,76.90
2018-06-20T08:03:09.553Z,77.20
2018-06-20T08:05:42.723Z,76.10
2018-06-20T08:08:15.869Z,77.30
2018-06-20T08:12:52.918Z,78.30
2018-06-20T08:15:26.046Z,77.10
2018-06-20T08:17:59.233Z,76.80
2018-06-20T08:20:26.770Z,75.20
2018-06-20T08:22:54.341Z,74.40
2018-06-20T08:25:21.809Z,75.20
2018-06-20T08:27:49.303Z,75.60
2018-06-20T08:30:16.822Z,78.70
2018-06-20T08:32:44.328Z,78.20
2018-06-20T08:35:11.849Z,76.50
2018-06-20T08:37:39.341Z,73.50
2018-06-20T08:40:06.869Z,75.10
2018-06-20T08:42:34.496Z,77.00
2018-06-20T08:45:01.876Z,72.20
2018-06-20T08:47:29.373Z,74.00
2018-06-20T08:49:58.676Z,72.60
2018-06-20T08:52:26.172Z,74.20
2018-06-20T08:54:53.691Z,73.20
2018-06-20T08:57:21.230Z,75.70
2018-06-20T08:59:48.709Z,73.40
2018-06-20T09:02:17.977Z,74.70
2018-06-20T09:04:51.485Z,73.10
2018-06-20T09:07:24.722Z,70.20
2018-06-20T09:09:57.896Z,70.20
2018-06-20T09:12:31.080Z,70.70
2018-06-20T09:15:04.243Z,70.20
2018-06-20T09:17:37.195Z,68.20
2018-06-20T09:20:04.970Z,71.60
2018-06-20T09:22:32.511Z,66.40
2018-06-20T09:24:59.998Z,69.60
2018-06-20T09:27:27.508Z,65.40
2018-06-20T09:29:55.029Z,67.40
2018-06-20T09:32:22.504Z,66.30
2018-06-20T09:34:50.009Z,64.20
2018-06-20T09:37:17.493Z,67.70
2018-06-20T09:39:45.056Z,62.90
2018-06-20T09:42:12.496Z,61.80
2018-06-20T09:44:40.061Z,65.10
2018-06-20T09:47:07.529Z,62.30
2018-06-20T09:49:35.027Z,64.40
2018-06-20T09:52:02.553Z,60.40
2018-06-20T09:54:30.050Z,58.40
2018-06-20T09:56:57.556Z,58.50
2018-06-20T09:59:30.645Z,56.60
2018-06-20T10:02:03.789Z,57.60
2018-06-20T10:04:36.825Z,56.10
2018-06-20T10:07:09.896Z,58.50
2018-06-20T10:09:42.938Z,58.10
2018-06-20T10:12:12.152Z,59.90
2018-06-20T10:14:39.624Z,58.80
2018-06-20T10:17:07.069Z,55.70
2018-06-20T10:19:34.673Z,56.30
2018-06-20T10:22:02.188Z,58.50
2018-06-20T10:24:29.714Z,55.00
2018-06-20T10:26:57.217Z,57.40
2018-06-20T10:29:24.676Z,57.30
2018-06-20T10:31:52.165Z,58.20
2018-06-20T10:34:19.708Z,58.70
2018-06-20T10:36:47.193Z,56.50
2018-06-20T10:39:14.682Z,57.90
2018-06-20T10:41:42.189Z,55.70
2018-06-20T10:44:12.665Z,59.20
2018-06-20T10:46:46.216Z,59.40
2018-06-20T10:49:14.926Z,61.30
2018-06-20T10:51:42.765Z,58.60
2018-06-20T10:54:10.191Z,58.80
2018-06-20T10:56:43.189Z,56.70
2018-06-20T10:59:16.297Z,59.80
2018-06-20T11:01:49.513Z,57.60
2018-06-20T11:04:22.682Z,58.20
2018-06-20T11:06:55.949Z,57.90
2018-06-20T11:09:29.077Z,57.20
2018-06-20T11:12:02.273Z,58.20
2018-06-20T11:14:29.794Z,54.80
2018-06-20T11:16:57.355Z,56.90
2018-06-20T11:19:24.890Z,55.30
2018-06-20T11:21:52.401Z,55.60
2018-06-20T11:24:19.969Z,55.90
2018-06-20T11:26:50.238Z,56.30
2018-06-20T11:29:17.823Z,53.10
2018-06-20T11:31:45.271Z,52.70
2018-06-20T11:34:14.843Z,50.40
2018-06-20T11:36:42.321Z,52.20
2018-06-20T11:39:11.499Z,54.20
2018-06-20T11:41:39.130Z,53.10
2018-06-20T11:46:39.615Z,51.20
2018-06-20T11:49:07.143Z,52.00
2018-06-20T11:51:37.437Z,51.20
2018-06-20T11:54:07.262Z,52.00
2018-06-20T11:56:36.458Z,51.70
2018-06-20T11:59:10.205Z,48.90
2018-06-20T12:04:17.933Z,49.70
2018-06-20T12:06:51.088Z,49.00
2018-06-20T12:09:25.454Z,49.60
2018-06-20T12:11:58.598Z,50.30
2018-06-20T12:14:31.778Z,49.10
2018-06-20T12:17:01.569Z,49.50
2018-06-20T12:19:34.620Z,46.30
2018-06-20T12:22:08.745Z,48.30
2018-06-20T12:24:41.888Z,46.90
2018-06-20T12:27:16.173Z,49.00
2018-06-20T12:30:02.547Z,49.20
2018-06-20T12:32:35.733Z,46.80
2018-06-20T12:35:08.825Z,48.40
2018-06-20T12:37:42.023Z,45.50
2018-06-20T12:40:15.974Z,47.90
2018-06-20T12:44:50.253Z,46.40
2018-06-20T12:47:20.735Z,47.90
2018-06-20T12:49:52.557Z,47.00
2018-06-20T12:52:20.049Z,46.60
2018-06-20T12:54:47.576Z,44.70
2018-06-20T12:57:15.134Z,45.10
2018-06-20T12:59:42.618Z,46.40
2018-06-20T13:02:10.121Z,47.60
2018-06-20T13:04:37.620Z,44.30
2018-06-20T13:07:05.154Z,46.70
2018-06-20T13:09:32.678Z,43.50
2018-06-20T13:12:00.145Z,44.70
2018-06-20T13:14:27.687Z,44.80
2018-06-20T13:16:55.501Z,45.90
2018-06-20T13:19:23.039Z,41.30
2018-06-20T13:21:50.519Z,40.70
2018-06-20T13:24:18.017Z,42.30
2018-06-20T13:26:45.595Z,42.70
2018-06-20T13:29:13.057Z,41.20
2018-06-20T13:31:46.227Z,41.60
2018-06-20T13:34:19.399Z,40.90
2018-06-20T13:36:52.545Z,42.60
2018-06-20T13:39:25.738Z,41.40
2018-06-20T13:41:59.914Z,41.60
2018-06-20T13:44:28.282Z,43.10
2018-06-20T13:47:01.448Z,41.70
2018-06-20T13:49:28.954Z,41.00
2018-06-20T13:51:56.532Z,40.70
2018-06-20T13:54:24.084Z,41.70
2018-06-20T13:56:52.154Z,43.30
2018-06-20T13:59:19.667Z,43.70
2018-06-20T14:01:47.202Z,40.70
2018-06-20T14:04:14.715Z,40.50
2018-06-20T14:06:42.336Z,39.60
2018-06-20T14:09:10.694Z,39.40
2018-06-20T14:11:38.374Z,39.90
2018-06-20T14:14:05.953Z,37.50
2018-06-20T14:16:33.845Z,38.00
2018-06-20T14:19:01.406Z,40.10
2018-06-20T14:21:34.990Z,41.00
2018-06-20T14:24:02.698Z,38.60
2018-06-20T14:26:30.180Z,39.20
2018-06-20T14:28:57.678Z,39.90
2018-06-20T14:31:30.765Z,41.80
2018-06-20T14:34:04.588Z,41.90
2018-06-20T14:36:37.542Z,42.10
2018-06-20T14:39:13.660Z,40.90
2018-06-20T14:41:47.366Z,41.70
2018-06-20T14:44:14.982Z,42.80
2018-06-20T14:46:43.453Z,42.90
2018-06-20T14:49:11.029Z,39.80
2018-06-20T14:51:38.593Z,42.80
2018-06-20T14:54:06.183Z,42.60
2018-06-20T14:56:33.729Z,43.70
2018-06-20T14:59:01.230Z,41.30
